Time;durP1;ratioP1;P1;durP2;ratioP2;P2;SDS_P1;SDS_P2;PMS_P1;PMS_P2;Temp;Humidity;BMP_temperature;BMP_pressure;BME280_temperature;BME280_humidity;BME280_pressure;Samples;Min_cycle;Max_cycle;Signal;HPM_P1;HPM_P2
2022/03/31 00:01:12;;;;;;;2.40;2.20;;;10.60;99.90;;;;;;5227442;28;20036;-76
2022/03/31 00:03:44;;;;;;;2.25;2.15;;;10.50;99.90;;;;;;5242654;28;20063;-76
2022/03/31 00:06:18;;;;;;;2.92;2.63;;;10.50;99.90;;;;;;5240841;28;20053;-76
2022/03/31 00:09:07;;;;;;;1.15;1.15;;;10.50;99.90;;;;;;5233894;28;20036;-79
2022/03/31 00:11:41;;;;;;;1.48;1.40;;;10.50;99.90;;;;;;5237179;28;20020;-78
2022/03/31 00:14:14;;;;;;;1.95;1.85;;;10.40;99.90;;;;;;5230194;28;20209;-77
2022/03/31 00:16:48;;;;;;;1.27;1.27;;;10.40;99.90;;;;;;5225595;28;20037;-77
2022/03/31 00:19:22;;;;;;;2.92;2.72;;;10.50;99.90;;;;;;5227839;28;20049;-77
2022/03/31 00:21:59;;;;;;;2.53;2.42;;;10.50;99.90;;;;;;5240677;28;20055;-77
2022/03/31 00:24:39;;;;;;;1.55;1.45;;;10.50;99.90;;;;;;5259862;28;20040;-78
2022/03/31 00:27:11;;;;;;;1.33;1.30;;;10.50;99.90;;;;;;5226199;28;20055;-80
2022/03/31 00:29:48;;;;;;;1.95;1.85;;;10.50;99.90;;;;;;5245267;28;20033;-77
2022/03/31 00:32:22;;;;;;;1.73;1.67;;;10.60;99.90;;;;;;5238151;28;20078;-77
2022/03/31 00:34:56;;;;;;;1.92;1.85;;;10.60;99.90;;;;;;5262264;28;20041;-77
2022/03/31 00:37:28;;;;;;;1.95;1.85;;;10.60;99.90;;;;;;5242993;28;20031;-80
2022/03/31 00:40:06;;;;;;;2.22;2.05;;;10.60;99.90;;;;;;5233229;28;20049;-79
2022/03/31 00:42:49;;;;;;;2.03;1.92;;;10.60;99.90;;;;;;5234995;28;20041;-78
2022/03/31 00:45:27;;;;;;;0.80;0.80;;;10.60;99.90;;;;;;5235306;28;20609;-79
2022/03/31 00:48:01;;;;;;;1.50;1.40;;;10.50;99.90;;;;;;5233817;28;20029;-79
2022/03/31 00:50:36;;;;;;;1.67;1.67;;;10.40;99.90;;;;;;5239681;28;20021;-77
2022/03/31 00:53:11;;;;;;;;;;;10.30;99.90;;;;;;5255661;28;20365;-76
2022/03/31 00:55:49;;;;;;;0.93;0.93;;;10.30;99.90;;;;;;5230067;28;19917;-75
2022/03/31 00:58:24;;;;;;;1.23;1.23;;;10.20;99.90;;;;;;5231871;28;20041;-80
2022/03/31 01:01:01;;;;;;;0.90;0.90;;;10.20;99.90;;;;;;5219359;28;20032;-77
2022/03/31 01:03:37;;;;;;;2.42;2.33;;;10.20;99.90;;;;;;5233644;28;20028;-75
2022/03/31 01:06:12;;;;;;;1.08;1.08;;;10.20;99.90;;;;;;5228759;28;20078;-76
2022/03/31 01:08:51;;;;;;;2.38;2.28;;;10.10;99.90;;;;;;5230592;28;20059;-75
2022/03/31 01:11:25;;;;;;;1.65;1.60;;;10.10;99.90;;;;;;5236163;28;20487;-78
2022/03/31 01:13:58;;;;;;;2.55;2.38;;;10.00;99.90;;;;;;5212871;28;20032;-78
2022/03/31 01:16:32;;;;;;;1.63;1.63;;;10.00;99.90;;;;;;5218185;28;20075;-77
2022/03/31 01:19:06;;;;;;;1.02;1.02;;;10.00;99.90;;;;;;5244312;28;20043;-77
2022/03/31 01:21:43;;;;;;;3.73;3.50;;;10.00;99.90;;;;;;5231960;28;20044;-79
2022/03/31 01:24:19;;;;;;;1.70;1.63;;;9.90;99.90;;;;;;5233279;28;20044;-80
2022/03/31 01:26:53;;;;;;;1.35;1.35;;;9.90;99.90;;;;;;5239950;28;20028;-76
2022/03/31 01:29:30;;;;;;;1.45;1.42;;;9.90;99.90;;;;;;5231751;28;20024;-76
2022/03/31 01:32:02;;;;;;;1.45;1.38;;;9.80;99.90;;;;;;5231586;28;20020;-75
2022/03/31 01:34:37;;;;;;;1.45;1.45;;;9.80;99.90;;;;;;5231254;28;20036;-77
2022/03/31 01:37:18;;;;;;;1.38;1.38;;;9.80;99.90;;;;;;5237737;28;20024;-77
2022/03/31 01:39:52;;;;;;;1.23;1.23;;;9.80;99.90;;;;;;5234065;28;20033;-76
2022/03/31 01:42:29;;;;;;;4.32;4.05;;;9.80;99.90;;;;;;5232399;28;20069;-77
2022/03/31 01:45:07;;;;;;;2.67;2.53;;;9.80;99.90;;;;;;5228546;28;20024;-77
2022/03/31 01:47:42;;;;;;;1.17;1.17;;;9.80;99.90;;;;;;5243027;28;20028;-77
2022/03/31 01:50:28;;;;;;;2.20;2.10;;;9.70;99.90;;;;;;5246634;28;20029;-78
2022/03/31 01:53:03;;;;;;;0.90;0.90;;;9.70;99.90;;;;;;5243185;28;20326;-78
2022/03/31 01:55:39;;;;;;;0.85;0.85;;;9.70;99.90;;;;;;5226954;28;20143;-77
2022/03/31 01:58:10;;;;;;;1.10;1.10;;;9.60;99.90;;;;;;5214109;28;20056;-76
2022/03/31 02:00:47;;;;;;;1.70;1.65;;;9.60;99.90;;;;;;5241200;28;20046;-78
2022/03/31 02:03:19;;;;;;;1.77;1.73;;;9.60;99.90;;;;;;5243566;28;20043;-77
2022/03/31 02:05:59;;;;;;;1.00;1.00;;;9.50;99.90;;;;;;5239057;28;20056;-75
2022/03/31 02:08:39;;;;;;;1.48;1.48;;;9.50;99.90;;;;;;5220778;28;20043;-77
2022/03/31 02:11:12;;;;;;;1.50;1.48;;;9.40;99.90;;;;;;5233946;28;20036;-78
2022/03/31 02:13:53;;;;;;;1.92;1.83;;;9.40;99.90;;;;;;5236657;28;20039;-77
2022/03/31 02:16:24;;;;;;;0.98;0.98;;;9.40;99.90;;;;;;5243674;28;20028;-80
2022/03/31 02:18:57;;;;;;;2.28;1.88;;;9.40;99.90;;;;;;5234272;28;20025;-77
2022/03/31 02:21:32;;;;;;;2.00;1.35;;;9.40;99.90;;;;;;5243016;28;20041;-77
2022/03/31 02:24:06;;;;;;;1.67;1.60;;;9.30;99.90;;;;;;5235655;28;20036;-79
2022/03/31 02:26:51;;;;;;;1.03;1.03;;;9.30;99.90;;;;;;5232357;28;20257;-77
2022/03/31 02:29:25;;;;;;;;;;;9.20;99.90;;;;;;5240897;28;20464;-78
2022/03/31 02:32:04;;;;;;;1.48;1.45;;;9.20;99.90;;;;;;5218580;28;19929;-80
2022/03/31 02:34:38;;;;;;;1.85;1.83;;;9.20;99.90;;;;;;5228962;28;20033;-78
2022/03/31 02:37:12;;;;;;;3.17;3.03;;;9.20;99.90;;;;;;5231169;28;20036;-77
2022/03/31 02:39:45;;;;;;;;;;;9.10;99.90;;;;;;5243853;28;20042;-77
2022/03/31 02:42:17;;;;;;;1.25;1.25;;;9.10;99.90;;;;;;5223887;28;19918;-80
2022/03/31 02:44:51;;;;;;;2.00;1.90;;;9.00;99.90;;;;;;5220077;28;20024;-77
2022/03/31 02:47:27;;;;;;;1.33;1.33;;;8.90;99.90;;;;;;5233773;28;20032;-78
2022/03/31 02:50:01;;;;;;;2.55;2.45;;;8.90;99.90;;;;;;5207949;28;20485;-76
2022/03/31 02:55:28;;;;;;;1.40;1.40;;;8.70;99.90;;;;;;5254475;28;20024;-77
2022/03/31 02:58:02;;;;;;;2.03;1.92;;;8.60;99.90;;;;;;5253459;28;20025;-77
2022/03/31 03:00:39;;;;;;;;;;;8.50;99.90;;;;;;5242657;28;20029;-77
2022/03/31 03:03:11;;;;;;;1.48;1.48;;;8.50;99.90;;;;;;5254017;28;19913;-77
2022/03/31 03:05:49;;;;;;;1.48;1.48;;;8.50;99.90;;;;;;5224447;28;20044;-77
2022/03/31 03:08:21;;;;;;;1.33;1.30;;;8.40;99.90;;;;;;5242582;28;20048;-78
2022/03/31 03:10:57;;;;;;;2.00;1.90;;;8.30;99.90;;;;;;5240336;28;20055;-78
2022/03/31 03:13:32;;;;;;;1.55;1.55;;;8.30;99.90;;;;;;5242331;28;20028;-77
2022/03/31 03:16:14;;;;;;;0.70;0.70;;;8.30;99.90;;;;;;5244283;28;20047;-78
2022/03/31 03:18:52;;;;;;;1.00;1.00;;;8.40;99.90;;;;;;5243873;28;20028;-78
2022/03/31 03:21:34;;;;;;;1.73;1.63;;;8.50;99.90;;;;;;5213414;28;20481;-78
2022/03/31 03:24:13;;;;;;;1.13;1.13;;;8.50;99.90;;;;;;5216882;28;20034;-76
2022/03/31 03:26:48;;;;;;;1.20;1.20;;;8.50;99.90;;;;;;5230811;28;20052;-77
2022/03/31 03:29:24;;;;;;;1.15;1.15;;;8.50;99.90;;;;;;5259120;28;20037;-77
2022/03/31 03:31:57;;;;;;;1.95;1.85;;;8.50;99.90;;;;;;5239286;28;20362;-77
2022/03/31 03:34:29;;;;;;;2.50;2.40;;;8.50;99.90;;;;;;5226797;28;20027;-79
2022/03/31 03:37:03;;;;;;;1.50;1.50;;;8.50;99.90;;;;;;5233010;28;20420;-78
2022/03/31 03:39:38;;;;;;;1.33;1.33;;;8.60;99.90;;;;;;5227479;28;21360;-78
2022/03/31 03:42:12;;;;;;;4.63;3.53;;;8.50;99.90;;;;;;5220234;28;20044;-77
2022/03/31 03:44:46;;;;;;;1.67;1.58;;;8.60;99.90;;;;;;5245481;28;20041;-78
2022/03/31 03:47:18;;;;;;;3.10;2.83;;;8.60;99.90;;;;;;5246305;28;20043;-77
2022/03/31 03:49:50;;;;;;;1.58;1.58;;;8.60;99.90;;;;;;5236794;28;20044;-78
2022/03/31 03:52:25;;;;;;;0.70;0.70;;;8.70;99.90;;;;;;5234131;28;20032;-77
2022/03/31 03:54:57;;;;;;;5.80;5.30;;;8.70;99.90;;;;;;5238985;28;20059;-77
2022/03/31 03:57:29;;;;;;;3.47;3.28;;;8.70;99.90;;;;;;5238473;28;20047;-78
2022/03/31 04:00:05;;;;;;;1.85;1.83;;;8.70;99.90;;;;;;5242502;28;20041;-79
2022/03/31 04:02:39;;;;;;;1.83;1.77;;;8.70;99.90;;;;;;5219444;28;20041;-77
2022/03/31 04:05:10;;;;;;;1.95;1.90;;;8.80;99.90;;;;;;5238840;28;20066;-77
2022/03/31 04:07:47;;;;;;;1.45;1.45;;;8.80;99.90;;;;;;5253331;28;20044;-77
2022/03/31 04:10:21;;;;;;;1.65;1.63;;;8.80;99.90;;;;;;5231801;28;20299;-77
2022/03/31 04:12:53;;;;;;;2.47;2.38;;;8.80;99.90;;;;;;5228291;28;20037;-77
2022/03/31 04:15:32;;;;;;;2.30;2.08;;;8.90;99.90;;;;;;5231314;28;20045;-77
2022/03/31 04:18:06;;;;;;;1.10;1.10;;;8.90;99.90;;;;;;5242054;28;20033;-77
2022/03/31 04:20:41;;;;;;;0.70;0.70;;;8.90;99.90;;;;;;5233802;28;20045;-77
2022/03/31 04:23:13;;;;;;;1.85;1.75;;;9.00;99.90;;;;;;5232585;28;20059;-78
2022/03/31 04:25:49;;;;;;;1.23;1.17;;;9.00;99.90;;;;;;5229951;28;20042;-78
2022/03/31 04:28:22;;;;;;;4.60;2.78;;;9.00;99.90;;;;;;5228870;28;20057;-78
2022/03/31 04:30:56;;;;;;;2.35;2.25;;;9.00;99.90;;;;;;5225814;28;20040;-78
2022/03/31 04:33:35;;;;;;;2.97;2.78;;;9.10;99.90;;;;;;5254591;28;20057;-78
2022/03/31 04:36:12;;;;;;;1.88;1.85;;;9.20;99.90;;;;;;5226474;28;20059;-76
2022/03/31 04:38:46;;;;;;;1.30;1.30;;;9.20;99.90;;;;;;5225564;28;20029;-77
2022/03/31 04:41:17;;;;;;;1.42;1.40;;;9.20;99.90;;;;;;5236359;28;20028;-77
2022/03/31 04:43:51;;;;;;;1.88;1.35;;;9.20;99.90;;;;;;5233687;28;20042;-77
2022/03/31 04:46:27;;;;;;;;;;;9.20;99.90;;;;;;5226806;28;20406;-77
2022/03/31 04:48:59;;;;;;;1.33;1.33;;;9.10;99.90;;;;;;5234174;28;19919;-77
2022/03/31 04:51:36;;;;;;;2.85;2.70;;;9.00;99.90;;;;;;5240903;28;20273;-79
2022/03/31 04:54:13;;;;;;;2.50;2.22;;;9.00;99.90;;;;;;5238099;28;20035;-78
2022/03/31 04:56:47;;;;;;;2.10;2.00;;;8.90;99.90;;;;;;5227042;28;20051;-77
2022/03/31 04:59:19;;;;;;;2.72;2.63;;;8.80;99.90;;;;;;5224402;28;20051;-77
2022/03/31 05:01:51;;;;;;;3.65;2.60;;;8.80;99.90;;;;;;5228859;28;20234;-78
2022/03/31 05:04:28;;;;;;;1.35;1.35;;;8.80;99.90;;;;;;5235860;28;20490;-78
2022/03/31 05:07:02;;;;;;;2.55;2.38;;;8.80;99.90;;;;;;5227230;28;20039;-78
2022/03/31 05:09:41;;;;;;;2.72;2.63;;;8.70;99.90;;;;;;5238842;28;20378;-78
2022/03/31 05:12:18;;;;;;;1.13;1.13;;;8.70;99.90;;;;;;5232848;28;20041;-78
2022/03/31 05:14:55;;;;;;;1.92;1.85;;;8.80;99.90;;;;;;5235356;28;20033;-79
2022/03/31 05:17:34;;;;;;;2.10;2.05;;;8.80;99.90;;;;;;5225427;28;20238;-78
2022/03/31 05:20:08;;;;;;;3.47;3.28;;;8.80;99.90;;;;;;5239682;28;20034;-78
2022/03/31 05:22:43;;;;;;;1.40;1.40;;;8.80;99.90;;;;;;5232054;28;20039;-79
2022/03/31 05:25:15;;;;;;;2.20;2.10;;;8.80;99.90;;;;;;5232862;28;20037;-78
2022/03/31 05:27:48;;;;;;;2.90;2.75;;;8.80;99.90;;;;;;5223597;28;20036;-79
2022/03/31 05:30:28;;;;;;;1.23;1.23;;;8.90;99.90;;;;;;5234920;28;20044;-80
2022/03/31 05:33:02;;;;;;;2.47;2.38;;;8.90;99.90;;;;;;5230857;28;20029;-79
2022/03/31 05:35:36;;;;;;;1.15;1.15;;;8.90;99.90;;;;;;5238233;28;20043;-79
2022/03/31 05:38:10;;;;;;;1.50;1.50;;;8.90;99.90;;;;;;5232670;28;20047;-78
2022/03/31 05:40:47;;;;;;;2.25;2.15;;;8.90;99.90;;;;;;5224017;28;20270;-78
2022/03/31 05:43:18;;;;;;;2.30;2.20;;;9.00;99.90;;;;;;5215013;28;20049;-79
2022/03/31 05:45:53;;;;;;;1.83;1.73;;;9.00;99.90;;;;;;5231137;28;20025;-78
2022/03/31 05:48:35;;;;;;;1.67;1.67;;;9.10;99.90;;;;;;5236497;28;20036;-79
2022/03/31 05:51:10;;;;;;;1.35;1.35;;;9.20;99.90;;;;;;5224833;28;20054;-79
2022/03/31 05:53:49;;;;;;;;;;;9.20;99.90;;;;;;5223071;28;20533;-79
2022/03/31 05:56:23;;;;;;;2.75;2.58;;;9.20;99.90;;;;;;5225497;28;20483;-79
2022/03/31 05:59:00;;;;;;;1.70;1.70;;;9.30;99.90;;;;;;5236673;28;20029;-80
2022/03/31 06:01:33;;;;;;;2.85;2.65;;;9.30;99.90;;;;;;5234672;28;20050;-76
2022/03/31 06:04:08;;;;;;;1.95;1.85;;;9.30;99.90;;;;;;5228185;28;20390;-79
2022/03/31 06:06:42;;;;;;;1.77;1.75;;;9.40;99.90;;;;;;5183535;28;20073;-79
2022/03/31 06:09:17;;;;;;;2.47;2.38;;;9.40;99.90;;;;;;5204642;28;20033;-79
2022/03/31 06:11:51;;;;;;;3.60;3.40;;;9.50;99.90;;;;;;5205687;28;20055;-79
2022/03/31 06:14:25;;;;;;;1.45;1.45;;;9.50;99.90;;;;;;5207604;28;20052;-76
2022/03/31 06:17:05;;;;;;;2.03;1.92;;;9.60;99.90;;;;;;5214890;28;20046;-79
2022/03/31 06:19:39;;;;;;;2.45;2.35;;;9.60;99.90;;;;;;5206883;28;20067;-77
2022/03/31 06:22:13;;;;;;;;;;;9.60;99.90;;;;;;5224347;28;20238;-78
2022/03/31 06:24:47;;;;;;;2.10;2.00;;;9.60;99.90;;;;;;5218286;28;19916;-78
2022/03/31 06:27:22;;;;;;;1.85;1.83;;;9.60;99.90;;;;;;5214096;28;20546;-78
2022/03/31 06:29:54;;;;;;;4.32;4.00;;;9.60;99.90;;;;;;5198089;28;20067;-78
2022/03/31 06:32:25;;;;;;;2.38;2.28;;;9.50;99.90;;;;;;5187548;28;20029;-79
2022/03/31 06:35:00;;;;;;;2.50;2.40;;;9.40;99.90;;;;;;5209320;28;20037;-79
2022/03/31 06:37:37;;;;;;;;;;;9.30;99.90;;;;;;5202756;28;20043;-77
2022/03/31 06:40:15;;;;;;;4.85;1.98;;;9.30;99.90;;;;;;5222669;28;19915;-77
2022/03/31 06:42:50;;;;;;;3.53;3.33;;;9.20;99.90;;;;;;5210556;28;20049;-78
2022/03/31 06:45:23;;;;;;;1.90;1.85;;;9.20;99.90;;;;;;5206801;28;20055;-79
2022/03/31 06:48:02;;;;;;;2.90;2.80;;;9.20;99.90;;;;;;5227425;28;20029;-78
2022/03/31 06:50:37;;;;;;;2.05;1.95;;;9.10;99.90;;;;;;5226598;28;20051;-76
2022/03/31 06:53:17;;;;;;;2.78;2.67;;;9.00;99.90;;;;;;5210246;28;20035;-78
2022/03/31 06:55:51;;;;;;;2.03;1.90;;;9.00;99.90;;;;;;5223581;28;20033;-77
2022/03/31 06:58:27;;;;;;;2.13;2.03;;;8.80;99.90;;;;;;5220433;28;20025;-79
2022/03/31 07:01:03;;;;;;;1.92;1.83;;;8.70;99.90;;;;;;5205796;28;20358;-77
2022/03/31 07:03:42;;;;;;;2.33;2.22;;;8.60;99.90;;;;;;5195228;28;20042;-77
2022/03/31 07:06:20;;;;;;;3.20;3.00;;;8.60;99.90;;;;;;5217400;28;20068;-78
2022/03/31 07:08:55;;;;;;;3.08;2.88;;;8.50;99.90;;;;;;5223939;28;20219;-78
2022/03/31 07:11:26;;;;;;;1.88;1.77;;;8.50;99.90;;;;;;5209318;28;20033;-78
2022/03/31 07:14:05;;;;;;;3.15;2.92;;;8.40;99.90;;;;;;5206283;28;20367;-78
2022/03/31 07:16:40;;;;;;;1.70;1.70;;;8.40;99.90;;;;;;5223185;28;20037;-78
2022/03/31 07:19:14;;;;;;;5.43;5.03;;;8.40;99.90;;;;;;5215139;28;20045;-79
2022/03/31 07:21:52;;;;;;;2.47;2.38;;;8.40;99.90;;;;;;5222278;28;20359;-77
2022/03/31 07:24:31;;;;;;;1.80;1.70;;;8.40;99.90;;;;;;5206438;28;20072;-77
2022/03/31 07:27:05;;;;;;;2.22;2.13;;;8.20;99.90;;;;;;5196395;28;20044;-77
2022/03/31 07:29:40;;;;;;;1.38;1.38;;;8.30;99.90;;;;;;5203384;28;20029;-79
2022/03/31 07:32:16;;;;;;;2.53;2.42;;;8.20;99.90;;;;;;5207546;28;20029;-79
2022/03/31 07:34:50;;;;;;;3.45;3.22;;;8.20;99.90;;;;;;5215340;28;20033;-78
2022/03/31 07:37:27;;;;;;;1.65;1.63;;;8.20;99.90;;;;;;5199271;28;20040;-78
2022/03/31 07:39:58;;;;;;;3.80;3.60;;;8.20;99.90;;;;;;5207303;28;20041;-78
2022/03/31 07:42:30;;;;;;;1.92;1.90;;;8.30;99.90;;;;;;5194929;28;20044;-77
2022/03/31 07:45:06;;;;;;;2.20;2.10;;;8.20;99.90;;;;;;5215452;28;20045;-78
2022/03/31 07:47:41;;;;;;;1.92;1.85;;;8.30;99.90;;;;;;5212201;28;20033;-77
2022/03/31 07:50:17;;;;;;;3.53;3.35;;;8.30;99.90;;;;;;5214774;28;20049;-78
2022/03/31 07:52:49;;;;;;;1.42;1.42;;;8.30;99.90;;;;;;5216429;28;20213;-78
2022/03/31 07:55:21;;;;;;;2.83;2.72;;;8.30;99.90;;;;;;5210244;28;20030;-78
2022/03/31 07:58:01;;;;;;;2.17;2.08;;;8.30;99.90;;;;;;5195842;28;20049;-78
2022/03/31 08:00:32;;;;;;;1.48;1.48;;;8.30;99.90;;;;;;5216021;28;20035;-78
2022/03/31 08:03:04;;;;;;;2.30;2.20;;;8.30;99.90;;;;;;5209033;28;20037;-78
2022/03/31 08:05:39;;;;;;;2.67;2.55;;;8.30;99.90;;;;;;5236068;28;20036;-79
2022/03/31 08:08:12;;;;;;;2.45;2.35;;;8.30;99.90;;;;;;5236985;28;20067;-78
2022/03/31 08:10:44;;;;;;;2.88;2.72;;;8.30;99.90;;;;;;5240714;28;20454;-79
2022/03/31 08:13:27;;;;;;;3.67;3.45;;;8.40;99.90;;;;;;5237471;28;20045;-79
2022/03/31 08:15:59;;;;;;;3.15;3.03;;;8.40;99.90;;;;;;5242035;28;20048;-77
2022/03/31 08:18:32;;;;;;;2.42;2.33;;;8.50;99.90;;;;;;5221835;28;20480;-76
2022/03/31 08:21:09;;;;;;;11.80;5.15;;;8.60;99.90;;;;;;5233128;28;20277;-77
2022/03/31 08:23:40;;;;;;;5.20;4.72;;;8.60;99.90;;;;;;5217441;28;20364;-77
2022/03/31 08:26:19;;;;;;;2.92;2.78;;;8.50;99.90;;;;;;5242279;28;20478;-77
2022/03/31 08:28:50;;;;;;;3.30;3.13;;;8.40;99.90;;;;;;5240894;28;20043;-76
2022/03/31 08:31:30;;;;;;;2.63;1.75;;;8.40;99.90;;;;;;5224854;28;20039;-77
2022/03/31 08:34:03;;;;;;;2.35;2.25;;;8.50;99.90;;;;;;5224632;28;20250;-77
2022/03/31 08:36:39;;;;;;;2.47;2.38;;;8.50;99.90;;;;;;5239751;28;20039;-78
2022/03/31 08:39:10;;;;;;;2.22;2.13;;;8.60;99.90;;;;;;5230304;28;20041;-78
2022/03/31 08:41:52;;;;;;;2.38;2.28;;;8.60;99.90;;;;;;5173786;28;20059;-78
2022/03/31 08:44:26;;;;;;;4.28;3.80;;;8.40;99.90;;;;;;5231826;28;20231;-78
2022/03/31 08:47:03;;;;;;;1.27;1.27;;;8.30;99.90;;;;;;5234672;28;20357;-78
2022/03/31 08:49:38;;;;;;;1.10;1.10;;;8.30;99.90;;;;;;5210194;28;20095;-78
2022/03/31 08:52:14;;;;;;;1.48;1.48;;;8.10;99.90;;;;;;5212525;28;20063;-79
2022/03/31 08:54:49;;;;;;;2.25;2.15;;;8.10;99.90;;;;;;5240554;28;20032;-78
2022/03/31 08:57:21;;;;;;;1.77;1.70;;;8.00;99.90;;;;;;5224578;28;20032;-78
2022/03/31 08:59:57;;;;;;;2.65;2.55;;;8.00;99.90;;;;;;5223899;28;20050;-77
2022/03/31 09:02:29;;;;;;;1.25;1.25;;;8.10;99.90;;;;;;5231799;28;20170;-77
2022/03/31 09:05:12;;;;;;;1.67;1.65;;;8.00;99.90;;;;;;5231084;28;20052;-78
2022/03/31 09:08:05;;;;;;;1.15;1.15;;;8.00;99.90;;;;;;5224963;28;20047;-77
2022/03/31 09:10:44;;;;;;;0.85;0.85;;;8.00;99.90;;;;;;5257407;28;20036;-78
2022/03/31 09:13:28;;;;;;;3.28;3.08;;;8.00;99.90;;;;;;5227550;28;20043;-77
2022/03/31 09:16:13;;;;;;;0.85;0.85;;;8.00;99.90;;;;;;5235589;28;20033;-77
2022/03/31 09:18:48;;;;;;;1.88;1.77;;;8.10;99.90;;;;;;5236896;28;20354;-77
2022/03/31 09:21:22;;;;;;;2.20;2.10;;;8.20;99.90;;;;;;5231970;28;20365;-77
2022/03/31 09:24:03;;;;;;;1.55;1.55;;;8.20;99.90;;;;;;5221810;28;20356;-76
2022/03/31 09:26:46;;;;;;;2.30;2.20;;;8.10;99.90;;;;;;5238103;28;20048;-76
2022/03/31 09:29:21;;;;;;;2.28;2.15;;;8.10;99.90;;;;;;5238390;28;20043;-77
2022/03/31 09:32:14;;;;;;;1.10;1.10;;;8.20;99.90;;;;;;5230534;28;20020;-77
2022/03/31 09:34:50;;;;;;;2.50;2.40;;;8.10;99.90;;;;;;5236944;28;20397;-77
2022/03/31 09:37:34;;;;;;;1.67;1.55;;;8.00;99.90;;;;;;5226477;28;20032;-75
2022/03/31 09:40:06;;;;;;;1.73;1.67;;;8.10;99.90;;;;;;5225809;28;20094;-77
2022/03/31 09:42:39;;;;;;;2.83;2.70;;;8.10;99.90;;;;;;5242641;28;20066;-75
2022/03/31 09:45:17;;;;;;;1.67;1.65;;;8.00;99.90;;;;;;5243723;28;20043;-78
2022/03/31 09:47:52;;;;;;;1.98;1.85;;;8.00;99.90;;;;;;5233124;28;20174;-78
2022/03/31 09:50:34;;;;;;;1.38;1.38;;;7.90;99.90;;;;;;5223211;28;20269;-76
2022/03/31 09:53:05;;;;;;;2.90;2.80;;;7.90;99.90;;;;;;5204288;28;20036;-77
2022/03/31 09:55:38;;;;;;;0.98;0.98;;;8.00;99.90;;;;;;5240449;28;20038;-76
2022/03/31 09:58:14;;;;;;;3.00;2.90;;;8.00;99.90;;;;;;5234008;28;20320;-78
2022/03/31 10:00:47;;;;;;;2.90;2.78;;;7.90;99.90;;;;;;5228711;28;20071;-76
2022/03/31 10:03:24;;;;;;;1.73;1.73;;;8.00;99.90;;;;;;5210780;28;20281;-76
2022/03/31 10:05:57;;;;;;;2.83;2.72;;;7.90;99.90;;;;;;5226818;28;20216;-77
2022/03/31 10:08:39;;;;;;;1.63;1.63;;;7.80;99.90;;;;;;5219207;28;20059;-78
2022/03/31 10:11:16;;;;;;;1.48;1.48;;;7.90;99.90;;;;;;5225566;28;20044;-75
2022/03/31 10:14:22;;;;;;;1.65;1.65;;;7.90;99.90;;;;;;5249832;28;20039;-75
2022/03/31 10:17:09;;;;;;;0.88;0.88;;;7.80;99.90;;;;;;5232273;28;20052;-76
2022/03/31 10:19:44;;;;;;;2.20;2.10;;;7.80;99.90;;;;;;5231254;28;20032;-77
2022/03/31 10:25:44;;;;;;;3.05;2.90;;;8.10;99.90;;;;;;5225951;28;20059;-77
2022/03/31 10:28:22;;;;;;;1.48;1.48;;;8.10;99.90;;;;;;5239101;28;20029;-75
2022/03/31 10:31:05;;;;;;;2.20;1.98;;;8.10;99.90;;;;;;5232634;28;20028;-77
2022/03/31 10:33:51;;;;;;;2.40;2.28;;;8.20;99.90;;;;;;5219680;28;20037;-77
2022/03/31 10:36:45;;;;;;;1.05;1.05;;;8.30;99.90;;;;;;5235218;28;20462;-76
2022/03/31 10:39:25;;;;;;;1.80;1.75;;;8.10;99.90;;;;;;5247933;28;20059;-78
2022/03/31 10:42:12;;;;;;;1.40;1.35;;;8.20;99.90;;;;;;5230238;28;20037;-77
2022/03/31 10:44:46;;;;;;;2.40;2.30;;;8.20;99.90;;;;;;5239083;28;20088;-75
2022/03/31 10:47:34;;;;;;;1.58;1.58;;;8.10;99.90;;;;;;5233323;28;20226;-77
2022/03/31 10:50:07;;;;;;;2.28;2.17;;;7.90;99.90;;;;;;5212587;28;20044;-79
2022/03/31 10:52:41;;;;;;;2.72;2.58;;;7.90;99.90;;;;;;5228182;28;20036;-78
2022/03/31 10:55:17;;;;;;;2.38;2.28;;;8.10;99.90;;;;;;5234957;28;20044;-78
2022/03/31 10:57:50;;;;;;;2.38;2.17;;;8.40;99.90;;;;;;5216492;28;20059;-78
2022/03/31 11:00:22;;;;;;;1.00;1.00;;;8.30;99.90;;;;;;5234410;28;20137;-76
2022/03/31 11:02:57;;;;;;;1.08;1.08;;;8.10;99.90;;;;;;5208041;28;20281;-79
2022/03/31 11:05:29;;;;;;;1.95;1.85;;;8.10;99.90;;;;;;5223297;28;20570;-78
2022/03/31 11:08:07;;;;;;;3.53;3.33;;;8.10;99.90;;;;;;5238001;28;20314;-78
2022/03/31 11:10:50;;;;;;;1.15;1.15;;;8.20;99.90;;;;;;5239285;28;20032;-78
2022/03/31 11:13:34;;;;;;;1.90;1.80;;;8.00;99.90;;;;;;5225200;28;20075;-78
2022/03/31 11:16:09;;;;;;;2.35;2.25;;;8.00;99.90;;;;;;5230685;28;20271;-77
2022/03/31 11:19:00;;;;;;;0.98;0.98;;;8.20;99.90;;;;;;5207192;28;20064;-78
2022/03/31 11:21:45;;;;;;;1.27;1.27;;;8.00;99.90;;;;;;5239747;28;20048;-76
2022/03/31 11:24:23;;;;;;;;;;;8.00;99.90;;;;;;5242214;28;20024;-78
2022/03/31 11:26:55;;;;;;;0.88;0.88;;;7.80;99.90;;;;;;5223581;28;20074;-77
2022/03/31 11:29:29;;;;;;;0.90;0.90;;;7.80;99.90;;;;;;5225399;28;20323;-75
2022/03/31 11:32:05;;;;;;;1.95;1.88;;;7.60;99.90;;;;;;5227093;28;20049;-77
2022/03/31 11:34:53;;;;;;;1.10;1.10;;;7.70;99.90;;;;;;5218163;28;20048;-76
2022/03/31 11:37:29;;;;;;;2.33;2.22;;;7.80;99.90;;;;;;5232937;28;20045;-77
2022/03/31 11:40:01;;;;;;;0.82;0.82;;;7.80;99.90;;;;;;5230493;28;20033;-78
2022/03/31 11:42:32;;;;;;;2.42;2.33;;;7.90;99.90;;;;;;5231036;28;20048;-79
2022/03/31 11:45:09;;;;;;;1.58;1.58;;;7.70;99.90;;;;;;5211446;28;20055;-78
2022/03/31 11:47:40;;;;;;;1.15;1.15;;;7.70;99.90;;;;;;5224483;28;20326;-79
2022/03/31 11:50:14;;;;;;;1.65;1.65;;;7.70;99.90;;;;;;5234297;28;20035;-80
2022/03/31 11:52:49;;;;;;;1.35;1.35;;;7.70;99.90;;;;;;5237519;28;20257;-76
2022/03/31 11:55:28;;;;;;;1.27;1.27;;;7.60;99.90;;;;;;5216583;28;20285;-77
2022/03/31 11:58:04;;;;;;;1.05;1.00;;;7.80;99.90;;;;;;5224738;28;20360;-77
2022/03/31 12:00:36;;;;;;;3.25;3.05;;;7.80;99.90;;;;;;5237719;28;20047;-78
2022/03/31 12:03:11;;;;;;;1.20;1.20;;;7.80;99.90;;;;;;5203487;28;20154;-78
2022/03/31 12:06:01;;;;;;;1.02;1.02;;;7.80;99.90;;;;;;5222959;28;20041;-77
2022/03/31 12:08:38;;;;;;;0.95;0.95;;;7.90;99.90;;;;;;5203887;28;20036;-76
2022/03/31 12:11:18;;;;;;;1.95;1.85;;;7.80;99.90;;;;;;5225181;28;20309;-78
2022/03/31 12:14:01;;;;;;;1.52;1.48;;;7.70;99.90;;;;;;5229925;28;20033;-77
2022/03/31 12:16:43;;;;;;;1.63;1.60;;;7.80;99.90;;;;;;5223714;28;20331;-79
2022/03/31 12:19:18;;;;;;;0.88;0.88;;;7.80;99.90;;;;;;5241309;28;20036;-78
2022/03/31 12:21:57;;;;;;;0.80;0.80;;;7.80;99.90;;;;;;5222814;28;20250;-79
2022/03/31 12:24:28;;;;;;;1.85;1.75;;;7.80;99.90;;;;;;5222830;28;20044;-78
2022/03/31 12:27:06;;;;;;;0.82;0.82;;;7.80;99.90;;;;;;5224506;28;20045;-77
2022/03/31 12:29:40;;;;;;;1.50;1.50;;;7.80;99.90;;;;;;5240008;28;20053;-78
2022/03/31 12:32:19;;;;;;;1.63;1.60;;;7.70;99.90;;;;;;5230310;28;20036;-78
2022/03/31 12:34:59;;;;;;;1.33;1.33;;;7.60;99.90;;;;;;5222678;28;20238;-77
2022/03/31 12:37:42;;;;;;;0.75;0.75;;;7.70;99.90;;;;;;5242781;28;20421;-77
2022/03/31 12:40:17;;;;;;;0.90;0.90;;;7.70;99.90;;;;;;5229193;28;20033;-78
2022/03/31 12:42:57;;;;;;;2.40;2.30;;;7.80;99.90;;;;;;5227897;28;20346;-77
2022/03/31 12:45:37;;;;;;;1.35;1.35;;;7.80;99.90;;;;;;5221880;28;20051;-78
2022/03/31 12:48:11;;;;;;;1.23;1.23;;;7.90;99.90;;;;;;5230198;28;20044;-79
2022/03/31 12:50:50;;;;;;;1.45;1.42;;;7.90;99.90;;;;;;5220889;28;20313;-76
2022/03/31 12:53:23;;;;;;;0.60;0.60;;;7.90;99.90;;;;;;5229556;28;20290;-77
2022/03/31 12:55:56;;;;;;;1.05;1.05;;;7.90;99.90;;;;;;5220544;28;20041;-76
2022/03/31 12:58:37;;;;;;;0.70;0.70;;;7.90;99.90;;;;;;5198385;28;20323;-77
2022/03/31 13:01:20;;;;;;;1.48;1.48;;;7.80;99.90;;;;;;5224903;28;20054;-78
2022/03/31 13:03:57;;;;;;;1.00;1.00;;;7.80;99.90;;;;;;5226358;28;20258;-75
2022/03/31 13:06:29;;;;;;;2.53;2.42;;;7.80;99.90;;;;;;5225928;28;20590;-78
2022/03/31 13:09:05;;;;;;;2.33;2.22;;;7.70;99.90;;;;;;5222491;28;20254;-78
2022/03/31 13:11:42;;;;;;;1.00;1.00;;;7.70;99.90;;;;;;5232028;28;20028;-77
2022/03/31 13:14:19;;;;;;;0.95;0.95;;;7.60;99.90;;;;;;5202871;28;20311;-78
2022/03/31 13:16:55;;;;;;;1.85;1.10;;;7.50;99.90;;;;;;5231717;28;20029;-77
2022/03/31 13:19:30;;;;;;;2.25;2.15;;;7.60;99.90;;;;;;5226489;28;20059;-77
2022/03/31 13:22:05;;;;;;;;;;;7.70;99.90;;;;;;5217703;28;20042;-78
2022/03/31 13:24:38;;;;;;;1.25;1.25;;;7.50;99.90;;;;;;5225286;28;19921;-76
2022/03/31 13:27:14;;;;;;;1.25;1.25;;;7.50;99.90;;;;;;5230187;28;20071;-76
2022/03/31 13:29:53;;;;;;;2.08;1.98;;;7.50;99.90;;;;;;5230230;28;20357;-76
2022/03/31 13:32:31;;;;;;;1.00;1.00;;;7.60;99.90;;;;;;5226601;28;21199;-78
2022/03/31 13:35:08;;;;;;;1.10;1.10;;;7.60;99.90;;;;;;5215343;28;20036;-78
2022/03/31 13:37:40;;;;;;;0.82;0.82;;;7.60;99.90;;;;;;5234600;28;20036;-77
2022/03/31 13:40:20;;;;;;;1.80;1.70;;;7.50;99.90;;;;;;5227985;28;20047;-78
2022/03/31 13:42:54;;;;;;;1.00;1.00;;;7.50;99.90;;;;;;5226122;28;20141;-76
2022/03/31 13:45:25;;;;;;;0.90;0.90;;;7.50;99.90;;;;;;5221952;28;20331;-77
2022/03/31 13:47:57;;;;;;;2.30;2.20;;;7.50;99.90;;;;;;5228515;28;20075;-77
2022/03/31 13:50:28;;;;;;;1.40;1.40;;;7.50;99.90;;;;;;5236816;28;20072;-79